Terminal Aerodrome Forecast
Issued by NWS

Home | Current Version | Previous Version | Text Only | Print | Product List | Glossary On
Versions: 1 2 3 4 5 6 7 8 9 10 11 12 13 14 15 16 17 18 19 20 21 22 23 24 25 26
617
FTUS43 KDLH 250534
TAFHYR
TAF
KHYR 250534Z 2506/2606 04006KT P6SM SCT120
     FM250800 03005KT 6SM BR BKN008
     FM251400 09005KT P6SM SCT012
     FM252100 10008KT P6SM VCSH BKN060
     FM260300 11008KT 5SM -SHRA BR SCT025 BKN040=

USA.gov is the U.S. government's official web portal to all federal, state and local government web resources and services.